Time;durP1;ratioP1;P1;durP2;ratioP2;P2;SDS_P1;SDS_P2;PMS_P1;PMS_P2;Temp;Humidity;BMP_temperature;BMP_pressure;BME280_temperature;BME280_humidity;BME280_pressure;Samples;Min_cycle;Max_cycle;Signal;HPM_P1;HPM_P2
2020/12/22 02:53:20;;;;;;;31.90;12.37;;;;;;;1.62;83.98;100446.28;126188;1098;23371;-61
2020/12/22 02:55:49;;;;;;;33.60;13.45;;;;;;;1.63;83.68;100456.11;126239;1099;23517;-61
2020/12/22 02:58:19;;;;;;;35.05;12.20;;;;;;;1.64;84.26;100441.93;126352;1098;23317;-62
2020/12/22 03:00:48;;;;;;;34.23;12.47;;;;;;;1.67;83.74;100445.05;126166;1098;23416;-62
2020/12/22 03:03:17;;;;;;;33.43;12.07;;;;;;;1.71;84.02;100423.76;126155;1098;24848;-62
2020/12/22 03:05:46;;;;;;;32.20;13.13;;;;;;;1.75;84.25;100425.27;126195;1098;23373;-63
2020/12/22 03:08:16;;;;;;;28.03;10.40;;;;;;;1.77;84.31;100420.13;126138;1098;23311;-62
2020/12/22 03:10:44;;;;;;;28.60;11.27;;;;;;;1.79;83.83;100408.70;126241;1099;23319;-62
2020/12/22 03:13:14;;;;;;;25.67;9.27;;;;;;;1.79;84.25;100401.23;126146;1098;23379;-62
2020/12/22 03:15:43;;;;;;;31.20;11.15;;;;;;;1.81;84.31;100400.80;126165;1098;23300;-63
2020/12/22 03:18:12;;;;;;;31.53;10.23;;;;;;;1.82;84.30;100394.12;126184;1093;26095;-66
2020/12/22 03:20:41;;;;;;;29.00;10.03;;;;;;;1.84;83.86;100378.75;126130;1098;23309;-61
2020/12/22 03:23:10;;;;;;;27.93;9.33;;;;;;;1.85;83.92;100376.75;126134;1098;25979;-61
2020/12/22 03:25:40;;;;;;;28.07;10.50;;;;;;;1.88;83.83;100382.23;126188;1098;23312;-61
2020/12/22 03:28:09;;;;;;;29.25;9.45;;;;;;;1.90;83.99;100385.34;126122;1098;27876;-61
2020/12/22 03:30:38;;;;;;;27.85;8.90;;;;;;;1.91;84.27;100384.12;126062;1098;23366;-61
2020/12/22 03:33:07;;;;;;;23.57;8.37;;;;;;;1.93;83.99;100386.45;126172;1098;23366;-61
2020/12/22 03:35:36;;;;;;;28.15;9.20;;;;;;;1.94;84.05;100391.56;126172;1098;23419;-62
2020/12/22 03:38:05;;;;;;;25.95;8.30;;;;;;;1.96;83.88;100391.14;126185;1098;23303;-63
2020/12/22 03:40:34;;;;;;;28.40;8.73;;;;;;;1.96;83.97;100383.67;126147;1099;23315;-63
2020/12/22 03:43:04;;;;;;;30.77;9.17;;;;;;;1.99;84.29;100387.54;126149;1098;23366;-63
2020/12/22 03:45:33;;;;;;;26.17;8.57;;;;;;;2.02;83.74;100389.47;126272;1098;23431;-62
2020/12/22 03:48:03;;;;;;;30.23;9.17;;;;;;;2.03;84.09;100383.54;126146;1098;23421;-62
2020/12/22 03:50:32;;;;;;;25.97;8.77;;;;;;;2.08;84.00;100372.06;126098;1099;23526;-61
2020/12/22 03:53:01;;;;;;;27.47;10.10;;;;;;;2.12;84.30;100372.78;126143;1098;23317;-61
2020/12/22 03:55:31;;;;;;;30.03;10.13;;;;;;;2.16;84.05;100367.99;126159;1098;26477;-62
2020/12/22 03:58:00;;;;;;;23.63;8.93;;;;;;;2.16;83.94;100362.48;130316;1098;24054;-62
2020/12/22 04:00:31;;;;;;;28.07;9.63;;;;;;;2.18;84.21;100362.05;127128;1099;26513;-62
2020/12/22 04:03:00;;;;;;;29.87;9.90;;;;;;;2.21;84.27;100366.74;126127;1098;28164;-62
2020/12/22 04:05:29;;;;;;;26.47;9.03;;;;;;;2.20;83.89;100360.45;126070;1098;25543;-61
2020/12/22 04:07:58;;;;;;;28.20;9.65;;;;;;;2.23;83.91;100350.57;126283;1098;23461;-64
2020/12/22 04:10:27;;;;;;;30.73;9.80;;;;;;;2.25;83.86;100346.20;126409;1098;28295;-62
2020/12/22 04:12:58;;;;;;;25.70;9.37;;;;;;;2.28;84.26;100345.34;126078;1098;26392;-63
2020/12/22 04:15:27;;;;;;;28.17;9.50;;;;;;;2.29;83.72;100338.66;126335;1098;23333;-61
2020/12/22 04:17:57;;;;;;;30.60;10.90;;;;;;;2.32;84.11;100334.26;126142;1098;23386;-61
2020/12/22 04:20:26;;;;;;;25.07;9.17;;;;;;;2.34;84.29;100329.89;126207;1098;23412;-61
2020/12/22 04:22:56;;;;;;;23.83;8.87;;;;;;;2.36;84.17;100321.20;126138;1099;23383;-61
2020/12/22 04:25:25;;;;;;;27.43;9.67;;;;;;;2.38;84.06;100316.05;126125;1098;23463;-62
2020/12/22 04:27:54;;;;;;;31.07;10.83;;;;;;;2.38;84.06;100308.56;126088;1098;23366;-62
2020/12/22 04:30:23;;;;;;;32.70;11.33;;;;;;;2.39;83.89;100301.87;126226;1098;23375;-62
2020/12/22 04:32:52;;;;;;;29.17;10.70;;;;;;;2.41;84.04;100299.47;126405;1098;23769;-61
2020/12/22 04:35:22;;;;;;;34.00;11.57;;;;;;;2.43;84.15;100297.06;126148;1098;23328;-61
2020/12/22 04:37:51;;;;;;;30.77;10.20;;;;;;;2.46;84.37;100298.20;126051;1098;23396;-63
2020/12/22 04:40:20;;;;;;;28.43;11.30;;;;;;;2.50;84.36;100289.86;126232;1098;23378;-62
2020/12/22 04:42:51;;;;;;;30.60;10.35;;;;;;;2.53;84.24;100280.73;126112;1098;29030;-61
2020/12/22 04:45:21;;;;;;;29.67;10.20;;;;;;;2.55;84.28;100279.12;126155;1098;23366;-61
2020/12/22 04:47:51;;;;;;;28.93;10.17;;;;;;;2.55;84.04;100283.84;126178;1098;23461;-61
2020/12/22 04:50:20;;;;;;;26.20;10.40;;;;;;;2.57;83.83;100278.69;126187;1098;23426;-63
2020/12/22 04:52:50;;;;;;;29.45;10.30;;;;;;;2.58;84.12;100266.47;126108;1098;23522;-61
2020/12/22 04:55:22;;;;;;;30.40;9.90;;;;;;;2.60;83.86;100269.58;126163;1098;23378;-62
2020/12/22 04:57:54;;;;;;;28.73;10.90;;;;;;;2.61;83.94;100269.15;126193;1098;23361;-62
2020/12/22 05:00:23;;;;;;;28.97;10.00;;;;;;;2.63;83.83;100266.75;126153;1098;23315;-63
2020/12/22 05:02:53;;;;;;;31.00;10.45;;;;;;;2.67;83.87;100269.45;126102;1098;23366;-62
2020/12/22 05:05:22;;;;;;;24.25;8.20;;;;;;;2.70;83.97;100265.83;126171;1098;23366;-61
2020/12/22 05:07:51;;;;;;;22.53;8.53;;;;;;;2.72;83.92;100252.40;126074;1098;27790;-62
2020/12/22 05:10:20;;;;;;;23.27;8.93;;;;;;;2.74;84.06;100247.23;126035;1098;23379;-62
2020/12/22 05:12:48;;;;;;;28.00;9.53;;;;;;;2.75;84.01;100235.77;126067;1099;28257;-62
2020/12/22 05:15:17;;;;;;;30.05;10.35;;;;;;;2.79;83.66;100224.70;126086;1098;27905;-61
2020/12/22 05:17:48;;;;;;;26.13;8.77;;;;;;;2.83;83.91;100225.39;126066;1098;27961;-62
2020/12/22 05:20:21;;;;;;;27.13;9.03;;;;;;;2.84;84.06;100221.41;126042;1098;25039;-62
2020/12/22 05:22:53;;;;;;;28.85;10.05;;;;;;;2.85;83.51;100209.20;126035;1098;26565;-62
2020/12/22 05:25:23;;;;;;;24.80;8.33;;;;;;;2.87;83.93;100212.30;126308;1098;23390;-64
2020/12/22 05:27:54;;;;;;;26.55;9.45;;;;;;;2.89;84.31;100204.38;126255;1098;27973;-61
2020/12/22 05:30:23;;;;;;;23.57;6.60;;;;;;;2.90;83.67;100203.16;126186;1098;23364;-62
2020/12/22 05:32:53;;;;;;;27.20;9.33;;;;;;;2.91;83.37;100197.23;126077;1098;23312;-62
2020/12/22 05:35:22;;;;;;;25.70;9.37;;;;;;;2.93;83.81;100197.59;126131;1098;23312;-62
2020/12/22 05:37:53;;;;;;;25.67;7.27;;;;;;;2.95;83.84;100191.64;126309;1099;23366;-61
2020/12/22 05:40:22;;;;;;;21.77;7.50;;;;;;;2.98;83.99;100193.55;126380;1098;24146;-63
2020/12/22 05:42:53;;;;;;;29.13;10.23;;;;;;;3.00;83.46;100172.59;126010;1098;23366;-63
2020/12/22 05:45:22;;;;;;;25.47;9.53;;;;;;;3.02;83.54;100166.67;126113;1098;23378;-64
2020/12/22 05:47:54;;;;;;;26.27;8.03;;;;;;;3.03;83.46;100170.96;126152;1098;23380;-64
2020/12/22 05:50:24;;;;;;;22.90;8.03;;;;;;;3.05;83.60;100163.03;126117;1098;26389;-61
2020/12/22 05:52:55;;;;;;;24.80;7.93;;;;;;;3.06;83.35;100161.84;126160;1098;23429;-62
2020/12/22 05:55:28;;;;;;;27.30;9.00;;;;;;;3.08;83.32;100162.19;126222;1098;23377;-64
2020/12/22 05:58:12;;;;;;;29.00;7.80;;;;;;;3.10;83.70;100159.77;126047;1098;28316;-64
2020/12/22 06:00:43;;;;;;;27.13;8.30;;;;;;;3.13;83.32;100158.90;126147;1098;23454;-63
2020/12/22 06:03:14;;;;;;;25.75;9.25;;;;;;;3.16;83.41;100152.53;126018;1098;25047;-63
2020/12/22 06:05:42;;;;;;;;;;;;;;;3.17;83.21;100152.09;126052;1098;23884;-61
2020/12/22 06:08:12;;;;;;;24.13;7.83;;;;;;;3.19;83.24;100149.68;126065;1098;21512;-63
2020/12/22 06:10:43;;;;;;;24.25;8.23;;;;;;;3.20;83.39;100150.46;126107;1098;28183;-61
2020/12/22 06:13:13;;;;;;;26.67;9.00;;;;;;;3.20;83.50;100148.48;126254;1099;24942;-61
2020/12/22 06:15:43;;;;;;;22.53;7.30;;;;;;;3.23;83.36;100146.83;125929;1098;23514;-63
2020/12/22 06:18:13;;;;;;;24.83;8.57;;;;;;;3.24;83.09;100137.36;126015;1098;23363;-60
2020/12/22 06:20:43;;;;;;;24.77;8.23;;;;;;;3.25;83.41;100138.89;126153;1098;23327;-61
2020/12/22 06:23:20;;;;;;;26.57;7.87;;;;;;;3.26;83.09;100135.72;126311;1098;23685;-64
2020/12/22 06:25:49;;;;;;;24.57;8.93;;;;;;;3.28;83.41;100116.75;126049;1098;23297;-61
2020/12/22 06:28:28;;;;;;;26.20;7.63;;;;;;;3.33;83.64;100109.95;125999;1098;23368;-62
2020/12/22 06:30:58;;;;;;;26.50;8.80;;;;;;;3.33;83.74;100112.70;126094;1099;23381;-62
2020/12/22 06:33:28;;;;;;;25.12;9.33;;;;;;;3.31;83.56;100108.82;126038;1099;23462;-62
2020/12/22 06:36:04;;;;;;;26.75;8.38;;;;;;;3.30;83.38;100102.52;125988;1098;23373;-62
2020/12/22 06:38:57;;;;;;;23.33;7.37;;;;;;;3.28;83.92;100111.23;126286;1098;23520;-62
2020/12/22 06:41:43;;;;;;;24.93;8.30;;;;;;;3.30;83.95;100108.03;125686;1101;23514;-62
2020/12/22 06:44:18;;;;;;;24.83;8.07;;;;;;;3.33;84.04;100109.16;125674;1101;26833;-61
2020/12/22 06:46:51;;;;;;;27.43;8.37;;;;;;;3.34;83.81;100113.45;125622;1101;23563;-61
2020/12/22 06:49:35;;;;;;;26.83;8.83;;;;;;;3.35;83.87;100113.05;125298;1097;23318;-62
2020/12/22 06:52:24;;;;;;;24.27;7.73;;;;;;;3.38;83.91;100105.86;125535;1102;23354;-62
2020/12/22 06:54:53;;;;;;;27.15;9.60;;;;;;;3.39;83.80;100101.91;125445;1097;29276;-61
2020/12/22 06:57:46;;;;;;;20.23;6.10;;;;;;;3.39;84.19;100097.17;125456;1101;26827;-60
2020/12/22 07:00:40;;;;;;;27.13;9.53;;;;;;;3.40;84.27;100100.69;125758;1101;25364;-61
2020/12/22 07:03:16;;;;;;;20.93;8.10;;;;;;;3.42;84.14;100106.54;125398;1104;23346;-61
2020/12/22 07:05:51;;;;;;;24.57;9.13;;;;;;;3.42;84.19;100104.56;125306;1104;23777;-60
2020/12/22 07:08:23;;;;;;;24.10;9.17;;;;;;;3.41;84.37;100097.52;125314;1104;23385;-62
2020/12/22 07:10:54;;;;;;;28.38;10.08;;;;;;;3.41;84.44;100099.48;125390;1104;23555;-62
2020/12/22 07:13:26;;;;;;;28.23;8.63;;;;;;;3.40;84.28;100090.42;125289;1104;23549;-63
2020/12/22 07:15:58;;;;;;;23.87;8.33;;;;;;;3.40;84.46;100103.44;125233;1096;25239;-62
2020/12/22 07:18:32;;;;;;;23.63;8.73;;;;;;;3.39;84.53;100110.97;125358;1102;23450;-62
2020/12/22 07:21:02;;;;;;;28.50;9.70;;;;;;;3.39;84.54;100110.97;125609;1101;23493;-62
2020/12/22 07:23:31;;;;;;;28.87;10.05;;;;;;;3.41;84.79;100110.53;125779;1101;23372;-62
2020/12/22 07:26:01;;;;;;;28.90;10.67;;;;;;;3.40;84.42;100106.98;125651;1101;23392;-64
2020/12/22 07:28:31;;;;;;;27.63;10.47;;;;;;;3.44;84.63;100109.64;125675;1096;28390;-61
2020/12/22 07:31:01;;;;;;;28.57;11.10;;;;;;;3.45;84.88;100108.45;125762;1096;26569;-62
2020/12/22 07:33:31;;;;;;;27.97;10.73;;;;;;;3.46;84.75;100110.77;125693;1101;23425;-62
2020/12/22 07:36:02;;;;;;;29.97;11.83;;;;;;;3.48;84.73;100110.33;125824;1101;23543;-61
2020/12/22 07:38:31;;;;;;;28.57;12.13;;;;;;;3.48;85.10;100102.83;125770;1101;25222;-63
2020/12/22 07:41:01;;;;;;;29.00;11.00;;;;;;;3.48;84.90;100094.55;125618;1099;23368;-63
2020/12/22 07:43:31;;;;;;;27.57;11.47;;;;;;;3.48;85.05;100089.03;126331;1098;23316;-61
2020/12/22 07:46:00;;;;;;;25.00;8.80;;;;;;;3.48;84.94;100080.75;126051;1098;28229;-61
2020/12/22 07:48:33;;;;;;;25.37;9.77;;;;;;;3.51;85.28;100079.11;125924;1099;23571;-61
2020/12/22 07:51:02;;;;;;;27.87;9.97;;;;;;;3.54;85.31;100078.25;125932;1098;26333;-63
2020/12/22 07:53:32;;;;;;;31.82;12.03;;;;;;;3.55;84.98;100075.05;126543;1098;28282;-61
2020/12/22 07:56:07;;;;;;;29.43;11.53;;;;;;;3.57;85.41;100069.88;125977;1099;23373;-62
2020/12/22 07:58:38;;;;;;;27.77;10.00;;;;;;;3.58;85.47;100054.84;126021;1098;23383;-61
2020/12/22 08:01:12;;;;;;;31.67;11.30;;;;;;;3.61;85.14;100055.96;126006;1098;28518;-61
2020/12/22 08:03:43;;;;;;;25.87;9.53;;;;;;;3.61;85.21;100055.96;126048;1098;27244;-62
2020/12/22 08:06:13;;;;;;;24.43;8.23;;;;;;;3.62;85.36;100054.77;126338;1098;26824;-61
2020/12/22 08:08:56;;;;;;;26.42;9.23;;;;;;;3.62;85.34;100050.00;126516;1099;23476;-61
2020/12/22 08:11:30;;;;;;;22.77;8.87;;;;;;;3.64;85.69;100049.58;126372;1099;24948;-61
2020/12/22 08:14:04;;;;;;;18.10;6.10;;;;;;;3.65;85.52;100060.19;126099;1098;23312;-62
2020/12/22 08:16:38;;;;;;;22.00;6.20;;;;;;;3.67;85.62;100049.47;126001;1099;23954;-64
2020/12/22 08:19:08;;;;;;;21.07;5.93;;;;;;;3.70;85.85;100048.62;127091;1098;27121;-64
2020/12/22 08:21:39;;;;;;;13.77;3.83;;;;;;;3.74;85.93;100043.77;126088;1098;27806;-63
2020/12/22 08:24:10;;;;;;;16.30;4.43;;;;;;;3.79;85.95;100040.45;125847;1098;23373;-62
2020/12/22 08:26:48;;;;;;;13.00;2.62;;;;;;;3.86;86.22;100042.24;126571;1098;23517;-62
2020/12/22 08:29:19;;;;;;;14.47;3.03;;;;;;;3.92;86.11;100034.96;125995;1099;23308;-63
2020/12/22 08:31:52;;;;;;;12.97;2.60;;;;;;;3.97;86.29;100029.66;126396;1098;27822;-61
2020/12/22 08:34:23;;;;;;;11.57;2.77;;;;;;;4.03;86.25;100038.95;126130;1098;23358;-62
2020/12/22 08:36:52;;;;;;;8.80;1.90;;;;;;;4.08;86.38;100035.66;126298;1099;29262;-62
2020/12/22 08:39:25;;;;;;;10.23;2.33;;;;;;;4.14;86.40;100021.31;126572;1099;23328;-61
2020/12/22 08:41:56;;;;;;;14.80;2.13;;;;;;;4.20;86.54;100017.53;126172;1098;23415;-61
2020/12/22 08:44:27;;;;;;;13.37;3.40;;;;;;;4.27;86.35;100030.36;126071;1098;26046;-61
2020/12/22 08:47:09;;;;;;;7.93;1.70;;;;;;;4.32;86.25;100038.11;126069;1098;23387;-62
2020/12/22 08:49:40;;;;;;;10.13;1.70;;;;;;;4.39;86.43;100041.42;126365;1093;23326;-61
2020/12/22 08:52:15;;;;;;;9.35;1.90;;;;;;;4.43;86.45;100044.09;126092;1093;23323;-61
2020/12/22 08:54:46;;;;;;;9.40;2.00;;;;;;;4.47;86.07;100045.52;126229;1098;25048;-61
2020/12/22 08:57:17;;;;;;;8.77;1.80;;;;;;;4.51;86.14;100037.13;126049;1098;23315;-62
2020/12/22 08:59:47;;;;;;;12.47;2.30;;;;;;;4.54;86.19;100022.41;126028;1093;23311;-62
2020/12/22 09:02:26;;;;;;;12.20;1.77;;;;;;;4.58;86.13;100029.38;126027;1098;23378;-62
2020/12/22 09:04:56;;;;;;;8.20;2.13;;;;;;;4.61;86.25;100027.72;126042;1098;23320;-62
2020/12/22 09:07:26;;;;;;;9.80;2.47;;;;;;;4.64;86.11;100027.59;125974;1098;23517;-61
2020/12/22 09:10:06;;;;;;;8.17;1.77;;;;;;;4.68;86.05;100025.49;126239;1098;23517;-61
2020/12/22 09:12:36;;;;;;;9.23;1.70;;;;;;;4.72;85.76;100039.20;126478;1098;23466;-62
2020/12/22 09:15:08;;;;;;;7.60;1.82;;;;;;;4.75;86.10;100046.62;126077;1093;23390;-62
2020/12/22 09:17:38;;;;;;;8.50;2.27;;;;;;;4.76;85.80;100024.04;125887;1093;23315;-62
2020/12/22 09:20:08;;;;;;;7.10;1.60;;;;;;;4.78;85.82;100023.59;126181;1098;23312;-63
2020/12/22 09:22:38;;;;;;;8.20;1.67;;;;;;;4.79;85.72;100011.32;125940;1093;23366;-61
2020/12/22 09:25:08;;;;;;;7.25;1.30;;;;;;;4.79;85.69;100016.85;126083;1098;23366;-62
2020/12/22 09:27:41;;;;;;;7.58;1.67;;;;;;;4.80;85.74;100004.59;126284;1093;23370;-62
2020/12/22 09:30:13;;;;;;;6.80;1.30;;;;;;;4.81;85.60;100003.35;126439;1098;23324;-61
2020/12/22 09:32:46;;;;;;;5.87;1.40;;;;;;;4.82;85.64;99996.62;127163;1098;23421;-62
2020/12/22 09:35:17;;;;;;;9.50;1.63;;;;;;;4.84;85.76;99985.87;126099;1098;23517;-62
2020/12/22 09:37:46;;;;;;;;;;;;;;;4.85;85.70;99981.88;126060;1099;23382;-61
2020/12/22 09:40:17;;;;;;;6.67;1.25;;;;;;;4.84;86.00;99983.11;126159;1098;21493;-62
2020/12/22 09:42:46;;;;;;;7.07;1.37;;;;;;;4.83;85.78;99976.80;126054;1098;23312;-61
2020/12/22 09:45:18;;;;;;;7.93;1.53;;;;;;;4.84;85.60;99975.56;126020;1093;23416;-61
2020/12/22 09:47:47;;;;;;;9.45;1.80;;;;;;;4.85;85.64;99977.13;126015;1098;23386;-62
2020/12/22 09:50:18;;;;;;;8.30;1.45;;;;;;;4.89;85.65;99965.94;126055;1098;23359;-61
2020/12/22 09:52:47;;;;;;;7.60;1.60;;;;;;;4.90;85.97;99970.27;126022;1098;23298;-62
2020/12/22 09:55:17;;;;;;;7.95;1.47;;;;;;;4.92;85.96;99959.52;126110;1098;23501;-62
2020/12/22 09:57:46;;;;;;;6.93;1.40;;;;;;;4.93;85.89;99959.06;126001;1098;23519;-64
2020/12/22 10:00:16;;;;;;;4.65;1.10;;;;;;;4.94;85.91;99955.06;126840;1098;23366;-62
2020/12/22 10:02:46;;;;;;;7.20;1.40;;;;;;;4.96;85.38;99956.63;126457;1098;26802;-61
2020/12/22 10:05:16;;;;;;;8.23;2.00;;;;;;;4.99;85.59;99959.27;126218;1098;26949;-62
2020/12/22 10:07:45;;;;;;;5.90;1.10;;;;;;;5.00;85.76;99966.35;126108;1098;23312;-62
2020/12/22 10:10:15;;;;;;;5.97;1.47;;;;;;;5.00;85.55;99952.52;126126;1098;23318;-61
2020/12/22 10:12:46;;;;;;;5.55;1.20;;;;;;;5.03;85.69;99945.33;125953;1098;27913;-62
2020/12/22 10:15:16;;;;;;;8.17;1.30;;;;;;;5.04;85.82;99939.34;126010;1098;23598;-62
2020/12/22 10:17:46;;;;;;;;;;;;;;;5.05;85.96;99940.86;125978;1098;23452;-62
2020/12/22 10:20:16;;;;;;;8.35;1.40;;;;;;;5.06;86.01;99930.58;126030;1093;21501;-61
2020/12/22 10:22:47;;;;;;;9.27;1.57;;;;;;;5.07;86.08;99932.89;126123;1098;23312;-62
2020/12/22 10:25:19;;;;;;;8.30;1.17;;;;;;;5.08;86.01;99928.14;125991;1098;23359;-62
2020/12/22 10:27:50;;;;;;;6.70;1.30;;;;;;;5.09;85.89;99932.46;126000;1098;28250;-60
2020/12/22 10:30:21;;;;;;;7.33;1.40;;;;;;;5.11;86.61;99933.53;125986;1093;26798;-61
2020/12/22 10:32:54;;;;;;;8.73;1.20;;;;;;;5.11;86.22;99938.31;126224;1099;24982;-63
2020/12/22 10:35:30;;;;;;;6.27;1.30;;;;;;;5.14;86.01;99940.17;126223;1093;23315;-62
2020/12/22 10:38:08;;;;;;;9.20;1.33;;;;;;;5.16;86.32;99932.19;126090;1098;23422;-61
2020/12/22 10:40:42;;;;;;;9.95;1.40;;;;;;;5.18;86.24;99929.75;126020;1098;23326;-62
2020/12/22 10:43:18;;;;;;;7.87;1.50;;;;;;;5.18;86.44;99927.76;126217;1099;23443;-61
2020/12/22 10:45:49;;;;;;;10.23;1.90;;;;;;;5.22;86.66;99927.63;126142;1099;23423;-63
2020/12/22 10:48:21;;;;;;;8.23;1.80;;;;;;;5.24;86.58;99920.42;127147;1093;23405;-64
2020/12/22 10:50:55;;;;;;;16.63;4.40;;;;;;;5.25;86.73;99916.45;127546;1098;27570;-64
2020/12/22 10:53:25;;;;;;;15.35;3.50;;;;;;;5.28;86.63;99914.75;126189;1098;23253;-63
2020/12/22 10:55:58;;;;;;;10.77;1.93;;;;;;;5.30;86.38;99904.00;126993;1099;23379;-63
2020/12/22 10:58:29;;;;;;;7.80;1.60;;;;;;;5.33;86.98;99906.66;126544;1098;29132;-62
2020/12/22 11:00:58;;;;;;;7.13;1.40;;;;;;;5.35;86.80;99906.98;126717;1098;23316;-64
2020/12/22 11:03:29;;;;;;;9.80;1.63;;;;;;;5.38;87.19;99905.30;126423;1098;25115;-63
2020/12/22 11:06:09;;;;;;;8.33;2.40;;;;;;;5.44;86.92;99900.73;126092;1098;23328;-63
2020/12/22 11:08:43;;;;;;;11.23;2.43;;;;;;;5.48;87.16;99890.30;126067;1098;23539;-63
2020/12/22 11:11:14;;;;;;;11.00;2.50;;;;;;;5.51;87.14;99895.69;126105;1098;23312;-64
2020/12/22 11:13:44;;;;;;;5.85;1.52;;;;;;;5.56;87.44;99894.33;126407;1098;27955;-63
2020/12/22 11:16:14;;;;;;;8.93;1.40;;;;;;;5.58;87.24;99889.11;126201;1098;23317;-63
2020/12/22 11:18:48;;;;;;;8.38;1.65;;;;;;;5.62;87.20;99887.76;126158;1098;23312;-62
2020/12/22 11:21:20;;;;;;;5.27;1.00;;;;;;;5.66;87.18;99880.09;126136;1098;23320;-62
2020/12/22 11:23:51;;;;;;;4.87;1.20;;;;;;;5.71;87.21;99881.50;126213;1098;26424;-63
2020/12/22 11:26:25;;;;;;;5.63;1.20;;;;;;;5.75;87.24;99877.34;126144;1098;26445;-62
2020/12/22 11:28:59;;;;;;;6.33;1.40;;;;;;;5.78;87.33;99867.35;126270;1098;23481;-63
2020/12/22 11:31:31;;;;;;;8.23;1.30;;;;;;;5.80;87.13;99878.75;126769;1098;25209;-63
2020/12/22 11:34:05;;;;;;;4.97;1.20;;;;;;;5.84;86.84;99875.86;126352;1098;23329;-62
2020/12/22 11:36:37;;;;;;;5.20;1.40;;;;;;;5.85;86.79;99867.11;126145;1098;27732;-63
2020/12/22 11:39:09;;;;;;;7.00;1.50;;;;;;;5.89;87.30;99864.20;126606;1098;26814;-62
2020/12/22 11:41:42;;;;;;;7.50;1.23;;;;;;;5.91;86.74;99861.74;126465;1099;23317;-62
2020/12/22 11:44:15;;;;;;;6.97;1.20;;;;;;;5.93;87.27;99864.83;126214;1098;23312;-63
2020/12/22 11:46:45;;;;;;;10.05;1.60;;;;;;;5.98;86.64;99869.78;126329;1098;23275;-64
2020/12/22 11:49:17;;;;;;;6.80;1.77;;;;;;;6.00;86.95;99861.78;126207;1098;26014;-63
2020/12/22 11:51:48;;;;;;;6.37;1.17;;;;;;;6.03;86.71;99863.63;126269;1099;23387;-62
2020/12/22 11:54:17;;;;;;;5.53;1.13;;;;;;;6.08;86.98;99863.81;126166;1093;26936;-62
2020/12/22 11:56:49;;;;;;;5.23;1.17;;;;;;;6.12;86.96;99860.89;126358;1098;23366;-64
2020/12/22 11:59:19;;;;;;;5.27;1.27;;;;;;;6.16;87.00;99853.20;126318;1093;25013;-63
2020/12/22 12:01:49;;;;;;;10.25;2.58;;;;;;;6.21;87.19;99849.81;126363;1098;23436;-65
2020/12/22 12:04:21;;;;;;;12.47;2.67;;;;;;;6.24;86.89;99849.69;126974;1098;26776;-63
2020/12/22 12:06:53;;;;;;;22.70;6.83;;;;;;;6.29;86.82;99849.06;126530;1098;23355;-63
2020/12/22 12:09:25;;;;;;;26.73;9.87;;;;;;;6.35;87.02;99852.02;126487;1098;23479;-63
2020/12/22 12:11:55;;;;;;;29.90;10.60;;;;;;;6.39;87.04;99858.93;126400;1098;23380;-62
2020/12/22 12:14:25;;;;;;;9.37;2.27;;;;;;;6.41;86.75;99853.70;126217;1098;23512;-62
2020/12/22 12:16:56;;;;;;;12.57;2.23;;;;;;;6.44;86.92;99857.55;126255;1098;23366;-64
2020/12/22 12:19:26;;;;;;;9.15;2.33;;;;;;;6.49;86.90;99856.96;126491;1099;25063;-63
2020/12/22 12:21:58;;;;;;;7.25;2.05;;;;;;;6.53;87.04;99852.03;126191;1099;23511;-63
2020/12/22 12:24:28;;;;;;;10.80;2.60;;;;;;;6.57;86.88;99849.88;126469;1098;23517;-63
2020/12/22 12:26:57;;;;;;;12.10;2.12;;;;;;;6.62;86.90;99851.27;126201;1098;23311;-63
2020/12/22 12:29:27;;;;;;;12.13;3.47;;;;;;;6.66;87.18;99847.12;126137;1098;23369;-63
2020/12/22 12:31:56;;;;;;;11.40;2.20;;;;;;;6.71;86.94;99852.03;126095;1098;23378;-62
2020/12/22 12:34:26;;;;;;;10.67;2.30;;;;;;;6.76;87.25;99840.34;125993;1098;23309;-63
2020/12/22 12:36:56;;;;;;;10.68;2.02;;;;;;;6.79;87.27;99850.49;126104;1098;23317;-64
2020/12/22 12:39:25;;;;;;;;;;;;;;;6.82;86.88;99840.48;126233;1098;27419;-65
2020/12/22 12:41:54;;;;;;;13.55;3.80;;;;;;;6.84;87.17;99832.46;126253;1099;24303;-63
2020/12/22 12:44:25;;;;;;;14.90;4.13;;;;;;;6.89;86.96;99846.48;126411;1098;23462;-64
2020/12/22 12:46:56;;;;;;;15.60;3.53;;;;;;;6.94;87.16;99850.64;126007;1098;23366;-63
2020/12/22 12:49:25;;;;;;;11.97;3.03;;;;;;;6.98;87.59;99846.48;126245;1098;24972;-63
2020/12/22 12:51:54;;;;;;;14.17;2.60;;;;;;;7.02;86.94;99844.31;126121;1098;23366;-64
2020/12/22 12:54:24;;;;;;;12.47;3.30;;;;;;;7.07;87.09;99842.93;126482;1098;23446;-64
2020/12/22 12:56:53;;;;;;;10.90;3.63;;;;;;;7.11;87.46;99838.77;126309;1098;23514;-63
2020/12/22 12:59:22;;;;;;;14.73;4.00;;;;;;;7.17;87.44;99836.13;126087;1099;24800;-63
2020/12/22 13:01:51;;;;;;;11.93;2.83;;;;;;;7.22;87.63;99835.51;126089;1098;23329;-65
2020/12/22 13:04:21;;;;;;;12.33;2.23;;;;;;;7.28;86.95;99841.97;126024;1098;23310;-62
2020/12/22 13:06:51;;;;;;;10.82;2.22;;;;;;;7.33;87.41;99839.33;126154;1098;23799;-63
2020/12/22 13:09:21;;;;;;;11.88;2.17;;;;;;;7.39;87.73;99835.93;126347;1098;24983;-63
2020/12/22 13:11:52;;;;;;;13.88;2.90;;;;;;;7.43;87.33;99842.84;126473;1098;23366;-63
2020/12/22 13:14:22;;;;;;;12.23;2.57;;;;;;;7.48;87.09;99841.44;126255;1098;26142;-63
2020/12/22 13:16:52;;;;;;;11.60;2.25;;;;;;;7.50;86.86;99845.30;126559;1098;23328;-63
2020/12/22 13:19:22;;;;;;;11.33;2.23;;;;;;;7.54;86.89;99843.13;126296;1099;23395;-64
2020/12/22 13:21:56;;;;;;;10.95;2.33;;;;;;;7.60;87.33;99840.47;126431;1098;23435;-64
2020/12/22 13:24:26;;;;;;;9.10;2.10;;;;;;;7.62;86.98;99844.33;126412;1098;23312;-63
2020/12/22 13:27:02;;;;;;;13.10;2.50;;;;;;;7.66;86.60;99849.71;126441;1098;27837;-63
2020/12/22 13:29:31;;;;;;;12.40;3.05;;;;;;;7.68;86.60;99842.45;126530;1099;27777;-63
2020/12/22 13:32:02;;;;;;;12.85;2.40;;;;;;;7.71;87.04;99849.09;126144;1098;23752;-65
2020/12/22 13:34:30;;;;;;;;;;;;;;;7.72;87.17;99854.16;126197;1093;25074;-65
2020/12/22 13:36:59;;;;;;;11.37;2.30;;;;;;;7.74;86.71;99851.69;126442;1098;24237;-62
2020/12/22 13:39:30;;;;;;;12.40;1.90;;;;;;;7.77;86.29;99853.54;126106;1098;23366;-63
2020/12/22 13:42:01;;;;;;;9.90;2.23;;;;;;;7.79;86.67;99858.63;126255;1098;27090;-62
2020/12/22 13:44:28;;;;;;;;;;;;;;;7.81;87.08;99854.14;126340;1098;23848;-63
2020/12/22 13:47:02;;;;;;;9.65;2.25;;;;;;;7.83;86.78;99851.66;126140;1098;21633;-63
2020/12/22 13:49:32;;;;;;;9.17;2.23;;;;;;;7.84;86.71;99841.32;126113;1098;26413;-63
2020/12/22 13:52:02;;;;;;;8.40;2.22;;;;;;;7.86;86.37;99855.52;126248;1093;23786;-63
2020/12/22 13:54:31;;;;;;;12.65;2.80;;;;;;;7.87;86.07;99857.81;126389;1098;23316;-63
2020/12/22 13:57:00;;;;;;;9.13;1.70;;;;;;;7.88;86.12;99851.00;126112;1098;26936;-64
2020/12/22 13:59:30;;;;;;;11.07;2.37;;;;;;;7.92;86.12;99848.85;126358;1099;23312;-63
2020/12/22 14:02:07;;;;;;;7.62;1.67;;;;;;;7.94;86.01;99860.27;126317;1098;23463;-62
2020/12/22 14:04:36;;;;;;;7.47;1.57;;;;;;;7.97;86.12;99861.31;126184;1098;26811;-64
2020/12/22 14:07:06;;;;;;;9.77;1.73;;;;;;;8.00;86.53;99865.95;126167;1099;23326;-62
2020/12/22 14:09:36;;;;;;;6.55;1.55;;;;;;;8.02;85.92;99863.47;126293;1098;23309;-63
2020/12/22 14:12:07;;;;;;;8.05;1.55;;;;;;;8.05;86.50;99863.28;126387;1098;23470;-65
2020/12/22 14:14:37;;;;;;;7.20;1.40;;;;;;;8.06;86.44;99872.41;126359;1098;23303;-65
2020/12/22 14:17:07;;;;;;;5.67;1.40;;;;;;;8.07;85.89;99863.58;126282;1093;23377;-63
2020/12/22 14:19:37;;;;;;;8.00;1.70;;;;;;;8.07;85.74;99885.83;126218;1098;25409;-64
2020/12/22 14:22:06;;;;;;;7.20;1.67;;;;;;;8.08;86.39;99872.70;126204;1098;24835;-64
2020/12/22 14:24:35;;;;;;;10.30;1.80;;;;;;;8.10;86.33;99870.22;126290;1098;27758;-63
2020/12/22 14:27:06;;;;;;;11.17;2.40;;;;;;;8.11;86.69;99871.77;126160;1098;26346;-64
2020/12/22 14:29:36;;;;;;;10.23;2.10;;;;;;;8.13;86.38;99872.82;126676;1098;23366;-63
2020/12/22 14:32:10;;;;;;;8.58;1.82;;;;;;;8.15;86.03;99869.59;126092;1098;23366;-61
2020/12/22 14:34:39;;;;;;;13.55;3.05;;;;;;;8.15;86.61;99870.34;126139;1099;23312;-61